sensor_id;sensor_type;location;lat;lon;timestamp;temperature;humidity
46720;DHT22;32452;51.382;-0.002;2023-10-09T00:02:27;17.70;90.50
46720;DHT22;32452;51.382;-0.002;2023-10-09T00:05:14;17.60;90.60
46720;DHT22;32452;51.382;-0.002;2023-10-09T00:08:08;17.60;90.70
46720;DHT22;32452;51.382;-0.002;2023-10-09T00:10:54;17.60;90.80
46720;DHT22;32452;51.382;-0.002;2023-10-09T00:13:46;17.50;91.00
46720;DHT22;32452;51.382;-0.002;2023-10-09T00:16:36;17.60;91.10
46720;DHT22;32452;51.382;-0.002;2023-10-09T00:19:26;17.50;91.20
46720;DHT22;32452;51.382;-0.002;2023-10-09T00:22:18;17.50;91.30
46720;DHT22;32452;51.382;-0.002;2023-10-09T00:25:10;17.50;91.40
46720;DHT22;32452;51.382;-0.002;2023-10-09T00:27:57;17.50;91.50
46720;DHT22;32452;51.382;-0.002;2023-10-09T00:30:45;17.50;91.60
46720;DHT22;32452;51.382;-0.002;2023-10-09T00:33:31;17.50;91.70
46720;DHT22;32452;51.382;-0.002;2023-10-09T00:36:18;17.50;91.80
46720;DHT22;32452;51.382;-0.002;2023-10-09T00:39:13;17.50;91.90
46720;DHT22;32452;51.382;-0.002;2023-10-09T00:42:07;17.50;92.00
46720;DHT22;32452;51.382;-0.002;2023-10-09T00:44:54;17.50;92.10
46720;DHT22;32452;51.382;-0.002;2023-10-09T00:47:41;17.50;92.20
46720;DHT22;32452;51.382;-0.002;2023-10-09T00:50:28;17.50;92.20
46720;DHT22;32452;51.382;-0.002;2023-10-09T00:53:22;17.50;92.20
46720;DHT22;32452;51.382;-0.002;2023-10-09T00:56:21;17.50;92.30
46720;DHT22;32452;51.382;-0.002;2023-10-09T00:59:25;17.50;92.20
46720;DHT22;32452;51.382;-0.002;2023-10-09T01:02:11;17.50;92.20
46720;DHT22;32452;51.382;-0.002;2023-10-09T01:04:57;17.50;92.30
46720;DHT22;32452;51.382;-0.002;2023-10-09T01:07:46;17.40;92.30
46720;DHT22;32452;51.382;-0.002;2023-10-09T01:10:47;17.40;92.30
46720;DHT22;32452;51.382;-0.002;2023-10-09T01:13:41;17.40;92.20
46720;DHT22;32452;51.382;-0.002;2023-10-09T01:16:39;17.40;92.30
46720;DHT22;32452;51.382;-0.002;2023-10-09T01:19:29;17.40;92.30
46720;DHT22;32452;51.382;-0.002;2023-10-09T01:22:16;17.30;92.30
46720;DHT22;32452;51.382;-0.002;2023-10-09T01:25:07;17.30;92.30
46720;DHT22;32452;51.382;-0.002;2023-10-09T01:27:52;17.30;92.40
46720;DHT22;32452;51.382;-0.002;2023-10-09T01:30:38;17.20;92.40
46720;DHT22;32452;51.382;-0.002;2023-10-09T01:33:27;17.20;92.40
46720;DHT22;32452;51.382;-0.002;2023-10-09T01:36:14;17.20;92.40
46720;DHT22;32452;51.382;-0.002;2023-10-09T01:39:05;17.10;92.40
46720;DHT22;32452;51.382;-0.002;2023-10-09T01:41:56;17.20;92.40
46720;DHT22;32452;51.382;-0.002;2023-10-09T01:44:45;17.10;92.40
46720;DHT22;32452;51.382;-0.002;2023-10-09T01:47:36;17.00;92.40
46720;DHT22;32452;51.382;-0.002;2023-10-09T01:50:24;17.10;92.50
46720;DHT22;32452;51.382;-0.002;2023-10-09T01:53:17;17.00;92.50
46720;DHT22;32452;51.382;-0.002;2023-10-09T01:56:11;17.00;92.40
46720;DHT22;32452;51.382;-0.002;2023-10-09T01:59:03;17.00;92.50
46720;DHT22;32452;51.382;-0.002;2023-10-09T02:01:51;17.00;92.50
46720;DHT22;32452;51.382;-0.002;2023-10-09T02:04:40;17.00;92.50
46720;DHT22;32452;51.382;-0.002;2023-10-09T02:07:28;17.00;92.50
46720;DHT22;32452;51.382;-0.002;2023-10-09T02:10:15;17.00;92.50
46720;DHT22;32452;51.382;-0.002;2023-10-09T02:13:09;17.00;92.50
46720;DHT22;32452;51.382;-0.002;2023-10-09T02:15:56;17.00;92.50
46720;DHT22;32452;51.382;-0.002;2023-10-09T02:18:58;17.00;92.60
46720;DHT22;32452;51.382;-0.002;2023-10-09T02:21:44;17.00;92.70
46720;DHT22;32452;51.382;-0.002;2023-10-09T02:24:33;17.00;92.70
46720;DHT22;32452;51.382;-0.002;2023-10-09T02:27:35;17.00;92.80
46720;DHT22;32452;51.382;-0.002;2023-10-09T02:30:40;17.00;92.80
46720;DHT22;32452;51.382;-0.002;2023-10-09T02:33:27;16.90;92.80
46720;DHT22;32452;51.382;-0.002;2023-10-09T02:36:18;16.90;92.90
46720;DHT22;32452;51.382;-0.002;2023-10-09T02:39:04;16.90;92.90
46720;DHT22;32452;51.382;-0.002;2023-10-09T02:41:58;16.80;93.00
46720;DHT22;32452;51.382;-0.002;2023-10-09T02:44:47;16.80;93.10
46720;DHT22;32452;51.382;-0.002;2023-10-09T02:47:35;16.70;93.10
46720;DHT22;32452;51.382;-0.002;2023-10-09T02:50:25;16.70;93.20
46720;DHT22;32452;51.382;-0.002;2023-10-09T02:53:13;16.60;93.30
46720;DHT22;32452;51.382;-0.002;2023-10-09T02:56:04;16.60;93.40
46720;DHT22;32452;51.382;-0.002;2023-10-09T02:58:59;16.60;93.40
46720;DHT22;32452;51.382;-0.002;2023-10-09T03:01:51;16.60;93.50
46720;DHT22;32452;51.382;-0.002;2023-10-09T03:04:38;16.60;93.70
46720;DHT22;32452;51.382;-0.002;2023-10-09T03:07:25;16.50;93.70
46720;DHT22;32452;51.382;-0.002;2023-10-09T03:10:12;16.50;93.80
46720;DHT22;32452;51.382;-0.002;2023-10-09T03:12:58;16.50;93.80
46720;DHT22;32452;51.382;-0.002;2023-10-09T03:15:47;16.50;93.90
46720;DHT22;32452;51.382;-0.002;2023-10-09T03:18:33;16.60;94.00
46720;DHT22;32452;51.382;-0.002;2023-10-09T03:21:19;16.60;94.00
46720;DHT22;32452;51.382;-0.002;2023-10-09T03:24:06;16.60;94.10
46720;DHT22;32452;51.382;-0.002;2023-10-09T03:26:53;16.60;94.10
46720;DHT22;32452;51.382;-0.002;2023-10-09T03:29:41;16.60;94.10
46720;DHT22;32452;51.382;-0.002;2023-10-09T03:32:26;16.60;94.10
46720;DHT22;32452;51.382;-0.002;2023-10-09T03:35:12;16.60;94.10
46720;DHT22;32452;51.382;-0.002;2023-10-09T03:38:03;16.60;94.10
46720;DHT22;32452;51.382;-0.002;2023-10-09T03:40:58;16.60;94.10
46720;DHT22;32452;51.382;-0.002;2023-10-09T03:43:43;16.50;94.10
46720;DHT22;32452;51.382;-0.002;2023-10-09T03:46:31;16.50;94.10
46720;DHT22;32452;51.382;-0.002;2023-10-09T03:49:22;16.50;94.20
46720;DHT22;32452;51.382;-0.002;2023-10-09T03:52:11;16.50;94.20
46720;DHT22;32452;51.382;-0.002;2023-10-09T03:54:56;16.50;94.20
46720;DHT22;32452;51.382;-0.002;2023-10-09T03:57:42;16.50;94.20
46720;DHT22;32452;51.382;-0.002;2023-10-09T04:00:30;16.50;94.20
46720;DHT22;32452;51.382;-0.002;2023-10-09T04:03:17;16.50;94.30
46720;DHT22;32452;51.382;-0.002;2023-10-09T04:06:02;16.40;94.20
46720;DHT22;32452;51.382;-0.002;2023-10-09T04:08:50;16.40;94.30
46720;DHT22;32452;51.382;-0.002;2023-10-09T04:11:38;16.40;94.20
46720;DHT22;32452;51.382;-0.002;2023-10-09T04:14:28;16.40;94.20
46720;DHT22;32452;51.382;-0.002;2023-10-09T04:17:20;16.50;94.20
46720;DHT22;32452;51.382;-0.002;2023-10-09T04:20:08;16.40;94.20
46720;DHT22;32452;51.382;-0.002;2023-10-09T04:23:03;16.40;94.10
46720;DHT22;32452;51.382;-0.002;2023-10-09T04:25:51;16.40;94.10
46720;DHT22;32452;51.382;-0.002;2023-10-09T04:28:38;16.40;94.10
46720;DHT22;32452;51.382;-0.002;2023-10-09T04:31:28;16.40;94.10
46720;DHT22;32452;51.382;-0.002;2023-10-09T04:34:23;16.40;94.10
46720;DHT22;32452;51.382;-0.002;2023-10-09T04:37:15;16.40;94.10
46720;DHT22;32452;51.382;-0.002;2023-10-09T04:40:00;16.40;94.10
46720;DHT22;32452;51.382;-0.002;2023-10-09T04:42:58;16.30;94.00
46720;DHT22;32452;51.382;-0.002;2023-10-09T04:45:44;16.30;94.00
46720;DHT22;32452;51.382;-0.002;2023-10-09T04:48:29;16.30;94.00
46720;DHT22;32452;51.382;-0.002;2023-10-09T04:51:24;16.30;94.00
46720;DHT22;32452;51.382;-0.002;2023-10-09T04:54:23;16.30;94.00
46720;DHT22;32452;51.382;-0.002;2023-10-09T04:57:24;16.20;93.90
46720;DHT22;32452;51.382;-0.002;2023-10-09T05:00:18;16.10;93.90
46720;DHT22;32452;51.382;-0.002;2023-10-09T05:03:10;16.20;93.90
46720;DHT22;32452;51.382;-0.002;2023-10-09T05:05:58;16.10;93.80
46720;DHT22;32452;51.382;-0.002;2023-10-09T05:08:44;16.10;93.80
46720;DHT22;32452;51.382;-0.002;2023-10-09T05:11:31;16.10;93.70
46720;DHT22;32452;51.382;-0.002;2023-10-09T05:14:20;16.00;93.70
46720;DHT22;32452;51.382;-0.002;2023-10-09T05:17:24;16.00;93.60
46720;DHT22;32452;51.382;-0.002;2023-10-09T05:20:11;16.00;93.60
46720;DHT22;32452;51.382;-0.002;2023-10-09T05:23:09;15.90;93.60
46720;DHT22;32452;51.382;-0.002;2023-10-09T05:26:08;16.00;93.60
46720;DHT22;32452;51.382;-0.002;2023-10-09T05:29:16;15.90;93.60
46720;DHT22;32452;51.382;-0.002;2023-10-09T05:32:06;15.90;93.60
46720;DHT22;32452;51.382;-0.002;2023-10-09T05:34:54;15.90;93.60
46720;DHT22;32452;51.382;-0.002;2023-10-09T05:37:46;15.90;93.60
46720;DHT22;32452;51.382;-0.002;2023-10-09T05:40:31;15.90;93.60
46720;DHT22;32452;51.382;-0.002;2023-10-09T05:43:17;15.80;93.50
46720;DHT22;32452;51.382;-0.002;2023-10-09T05:46:22;15.80;93.50
46720;DHT22;32452;51.382;-0.002;2023-10-09T05:49:21;15.80;93.50
46720;DHT22;32452;51.382;-0.002;2023-10-09T05:52:10;15.70;93.50
46720;DHT22;32452;51.382;-0.002;2023-10-09T05:55:34;15.70;93.50
46720;DHT22;32452;51.382;-0.002;2023-10-09T05:58:38;15.70;93.50
46720;DHT22;32452;51.382;-0.002;2023-10-09T06:01:59;15.60;93.50
46720;DHT22;32452;51.382;-0.002;2023-10-09T06:04:47;15.60;93.50
46720;DHT22;32452;51.382;-0.002;2023-10-09T06:07:40;15.60;93.50
46720;DHT22;32452;51.382;-0.002;2023-10-09T06:10:48;15.60;93.50
46720;DHT22;32452;51.382;-0.002;2023-10-09T06:13:34;15.60;93.50
46720;DHT22;32452;51.382;-0.002;2023-10-09T06:16:23;15.50;93.50
46720;DHT22;32452;51.382;-0.002;2023-10-09T06:19:27;15.50;93.60
46720;DHT22;32452;51.382;-0.002;2023-10-09T06:22:18;15.50;93.60
46720;DHT22;32452;51.382;-0.002;2023-10-09T06:25:21;15.50;93.70
46720;DHT22;32452;51.382;-0.002;2023-10-09T06:28:12;15.50;93.70
46720;DHT22;32452;51.382;-0.002;2023-10-09T06:30:59;15.50;93.80
46720;DHT22;32452;51.382;-0.002;2023-10-09T06:34:04;15.50;93.80
46720;DHT22;32452;51.382;-0.002;2023-10-09T06:37:01;15.50;93.90
46720;DHT22;32452;51.382;-0.002;2023-10-09T06:40:13;15.50;93.90
46720;DHT22;32452;51.382;-0.002;2023-10-09T06:43:18;15.60;93.90
46720;DHT22;32452;51.382;-0.002;2023-10-09T06:46:14;15.60;93.80
46720;DHT22;32452;51.382;-0.002;2023-10-09T06:49:12;15.70;93.90
46720;DHT22;32452;51.382;-0.002;2023-10-09T06:52:16;15.80;93.80
46720;DHT22;32452;51.382;-0.002;2023-10-09T06:55:22;15.90;93.80
46720;DHT22;32452;51.382;-0.002;2023-10-09T06:58:20;16.00;93.70
46720;DHT22;32452;51.382;-0.002;2023-10-09T07:01:13;16.10;93.70
46720;DHT22;32452;51.382;-0.002;2023-10-09T07:04:17;16.20;93.60
46720;DHT22;32452;51.382;-0.002;2023-10-09T07:07:25;16.30;93.50
46720;DHT22;32452;51.382;-0.002;2023-10-09T07:10:10;16.40;93.30
46720;DHT22;32452;51.382;-0.002;2023-10-09T07:13:14;16.50;93.20
46720;DHT22;32452;51.382;-0.002;2023-10-09T07:15:59;16.70;93.10
46720;DHT22;32452;51.382;-0.002;2023-10-09T07:19:07;16.80;93.10
46720;DHT22;32452;51.382;-0.002;2023-10-09T07:22:05;16.90;93.00
46720;DHT22;32452;51.382;-0.002;2023-10-09T07:25:01;17.10;92.80
46720;DHT22;32452;51.382;-0.002;2023-10-09T07:28:13;17.20;92.60
46720;DHT22;32452;51.382;-0.002;2023-10-09T07:31:19;17.50;92.40
46720;DHT22;32452;51.382;-0.002;2023-10-09T07:34:12;17.70;92.20
46720;DHT22;32452;51.382;-0.002;2023-10-09T07:37:30;17.90;91.90
46720;DHT22;32452;51.382;-0.002;2023-10-09T07:40:16;18.10;91.60
46720;DHT22;32452;51.382;-0.002;2023-10-09T07:43:03;18.20;91.20
46720;DHT22;32452;51.382;-0.002;2023-10-09T07:45:50;18.50;91.00
46720;DHT22;32452;51.382;-0.002;2023-10-09T07:48:35;18.60;90.70
46720;DHT22;32452;51.382;-0.002;2023-10-09T07:51:36;18.60;90.50
46720;DHT22;32452;51.382;-0.002;2023-10-09T07:54:21;18.60;90.40
46720;DHT22;32452;51.382;-0.002;2023-10-09T07:57:21;18.50;90.50
46720;DHT22;32452;51.382;-0.002;2023-10-09T08:00:11;18.50;90.50
46720;DHT22;32452;51.382;-0.002;2023-10-09T08:02:58;18.50;90.40
46720;DHT22;32452;51.382;-0.002;2023-10-09T08:05:46;18.50;90.40
46720;DHT22;32452;51.382;-0.002;2023-10-09T08:08:31;18.60;90.40
46720;DHT22;32452;51.382;-0.002;2023-10-09T08:11:23;18.60;90.40
46720;DHT22;32452;51.382;-0.002;2023-10-09T08:14:27;18.60;90.20
46720;DHT22;32452;51.382;-0.002;2023-10-09T08:17:19;18.70;90.20
46720;DHT22;32452;51.382;-0.002;2023-10-09T08:20:08;18.70;90.20
46720;DHT22;32452;51.382;-0.002;2023-10-09T08:22:57;18.70;90.10
46720;DHT22;32452;51.382;-0.002;2023-10-09T08:25:42;18.70;90.20
46720;DHT22;32452;51.382;-0.002;2023-10-09T08:28:43;18.80;90.10
46720;DHT22;32452;51.382;-0.002;2023-10-09T08:31:29;18.80;90.00
46720;DHT22;32452;51.382;-0.002;2023-10-09T08:34:30;18.80;90.00
46720;DHT22;32452;51.382;-0.002;2023-10-09T08:37:36;18.80;90.10
46720;DHT22;32452;51.382;-0.002;2023-10-09T08:40:31;18.80;90.10
46720;DHT22;32452;51.382;-0.002;2023-10-09T08:43:20;18.80;90.00
46720;DHT22;32452;51.382;-0.002;2023-10-09T08:46:06;18.80;89.90
46720;DHT22;32452;51.382;-0.002;2023-10-09T08:48:59;18.80;89.90
46720;DHT22;32452;51.382;-0.002;2023-10-09T08:51:54;19.00;90.00
46720;DHT22;32452;51.382;-0.002;2023-10-09T08:54:43;19.30;90.00
46720;DHT22;32452;51.382;-0.002;2023-10-09T08:57:29;19.50;89.30
46720;DHT22;32452;51.382;-0.002;2023-10-09T09:00:19;19.90;88.40
46720;DHT22;32452;51.382;-0.002;2023-10-09T09:03:09;20.00;87.00
46720;DHT22;32452;51.382;-0.002;2023-10-09T09:06:00;20.10;86.50
46720;DHT22;32452;51.382;-0.002;2023-10-09T09:08:50;20.20;86.10
46720;DHT22;32452;51.382;-0.002;2023-10-09T09:11:43;20.20;85.90
46720;DHT22;32452;51.382;-0.002;2023-10-09T09:14:38;20.10;85.50
46720;DHT22;32452;51.382;-0.002;2023-10-09T09:17:30;20.10;85.50
46720;DHT22;32452;51.382;-0.002;2023-10-09T09:20:25;20.10;85.40
46720;DHT22;32452;51.382;-0.002;2023-10-09T09:23:22;20.00;85.20
46720;DHT22;32452;51.382;-0.002;2023-10-09T09:26:09;20.10;85.50
46720;DHT22;32452;51.382;-0.002;2023-10-09T09:28:57;20.20;85.10
46720;DHT22;32452;51.382;-0.002;2023-10-09T09:31:55;20.50;85.10
46720;DHT22;32452;51.382;-0.002;2023-10-09T09:34:53;21.00;84.40
46720;DHT22;32452;51.382;-0.002;2023-10-09T09:37:53;21.40;84.40
46720;DHT22;32452;51.382;-0.002;2023-10-09T09:40:41;21.80;82.80
46720;DHT22;32452;51.382;-0.002;2023-10-09T09:43:27;22.30;81.50
46720;DHT22;32452;51.382;-0.002;2023-10-09T09:46:18;22.60;79.50
46720;DHT22;32452;51.382;-0.002;2023-10-09T09:49:08;22.90;78.00
46720;DHT22;32452;51.382;-0.002;2023-10-09T09:52:02;23.10;77.20
46720;DHT22;32452;51.382;-0.002;2023-10-09T09:54:55;23.20;76.30
46720;DHT22;32452;51.382;-0.002;2023-10-09T09:57:44;23.20;75.80
46720;DHT22;32452;51.382;-0.002;2023-10-09T10:00:33;23.30;75.20
46720;DHT22;32452;51.382;-0.002;2023-10-09T10:03:38;23.40;74.70
46720;DHT22;32452;51.382;-0.002;2023-10-09T10:06:30;23.60;73.80
46720;DHT22;32452;51.382;-0.002;2023-10-09T10:09:40;23.70;73.30
46720;DHT22;32452;51.382;-0.002;2023-10-09T10:12:50;24.20;72.30
46720;DHT22;32452;51.382;-0.002;2023-10-09T10:16:00;24.50;71.10
46720;DHT22;32452;51.382;-0.002;2023-10-09T10:18:59;24.60;70.10
46720;DHT22;32452;51.382;-0.002;2023-10-09T10:21:45;24.80;68.70
46720;DHT22;32452;51.382;-0.002;2023-10-09T10:27:36;25.30;67.20
46720;DHT22;32452;51.382;-0.002;2023-10-09T10:30:46;25.60;66.90
46720;DHT22;32452;51.382;-0.002;2023-10-09T10:36:48;26.10;64.40
46720;DHT22;32452;51.382;-0.002;2023-10-09T10:40:02;26.20;63.80
46720;DHT22;32452;51.382;-0.002;2023-10-09T10:43:03;26.40;63.60
46720;DHT22;32452;51.382;-0.002;2023-10-09T10:46:06;26.60;62.10
46720;DHT22;32452;51.382;-0.002;2023-10-09T10:49:44;26.70;60.40
46720;DHT22;32452;51.382;-0.002;2023-10-09T10:52:35;26.80;60.30
46720;DHT22;32452;51.382;-0.002;2023-10-09T10:55:21;26.90;59.60
46720;DHT22;32452;51.382;-0.002;2023-10-09T10:58:17;27.10;58.90
46720;DHT22;32452;51.382;-0.002;2023-10-09T11:01:09;27.40;58.10
46720;DHT22;32452;51.382;-0.002;2023-10-09T11:03:57;27.60;57.70
46720;DHT22;32452;51.382;-0.002;2023-10-09T11:06:43;27.80;56.90
46720;DHT22;32452;51.382;-0.002;2023-10-09T11:09:49;27.80;56.10
46720;DHT22;32452;51.382;-0.002;2023-10-09T11:12:49;27.80;55.80
46720;DHT22;32452;51.382;-0.002;2023-10-09T11:15:39;27.70;55.90
46720;DHT22;32452;51.382;-0.002;2023-10-09T11:18:43;27.70;55.50
46720;DHT22;32452;51.382;-0.002;2023-10-09T11:21:31;27.80;55.10
46720;DHT22;32452;51.382;-0.002;2023-10-09T11:24:17;28.10;54.60
46720;DHT22;32452;51.382;-0.002;2023-10-09T11:27:16;28.40;54.10
46720;DHT22;32452;51.382;-0.002;2023-10-09T11:30:06;28.70;53.20
46720;DHT22;32452;51.382;-0.002;2023-10-09T11:33:06;29.00;52.60
46720;DHT22;32452;51.382;-0.002;2023-10-09T11:35:56;29.30;51.80
46720;DHT22;32452;51.382;-0.002;2023-10-09T11:38:43;29.50;51.60
46720;DHT22;32452;51.382;-0.002;2023-10-09T11:41:39;29.70;51.30
46720;DHT22;32452;51.382;-0.002;2023-10-09T11:44:36;29.90;50.90
46720;DHT22;32452;51.382;-0.002;2023-10-09T11:47:34;30.20;50.30
46720;DHT22;32452;51.382;-0.002;2023-10-09T11:50:20;30.40;49.50
46720;DHT22;32452;51.382;-0.002;2023-10-09T11:53:08;30.30;49.00
46720;DHT22;32452;51.382;-0.002;2023-10-09T11:55:54;30.30;48.50
46720;DHT22;32452;51.382;-0.002;2023-10-09T11:58:40;30.20;48.30
46720;DHT22;32452;51.382;-0.002;2023-10-09T12:01:25;30.30;48.30
46720;DHT22;32452;51.382;-0.002;2023-10-09T12:04:21;30.50;48.10
46720;DHT22;32452;51.382;-0.002;2023-10-09T12:07:15;30.60;48.10
46720;DHT22;32452;51.382;-0.002;2023-10-09T12:10:01;30.80;47.60
46720;DHT22;32452;51.382;-0.002;2023-10-09T12:12:47;30.80;47.00
46720;DHT22;32452;51.382;-0.002;2023-10-09T12:15:34;30.90;47.00
46720;DHT22;32452;51.382;-0.002;2023-10-09T12:18:23;31.10;46.40
46720;DHT22;32452;51.382;-0.002;2023-10-09T12:21:10;31.00;45.90
46720;DHT22;32452;51.382;-0.002;2023-10-09T12:24:01;30.70;45.50
46720;DHT22;32452;51.382;-0.002;2023-10-09T12:26:57;30.30;46.00
46720;DHT22;32452;51.382;-0.002;2023-10-09T12:29:42;29.90;46.70
46720;DHT22;32452;51.382;-0.002;2023-10-09T12:32:35;29.50;47.30
46720;DHT22;32452;51.382;-0.002;2023-10-09T12:35:21;29.30;47.60
46720;DHT22;32452;51.382;-0.002;2023-10-09T12:38:09;29.20;48.00
46720;DHT22;32452;51.382;-0.002;2023-10-09T12:41:01;29.30;48.10
46720;DHT22;32452;51.382;-0.002;2023-10-09T12:43:57;29.50;48.00
46720;DHT22;32452;51.382;-0.002;2023-10-09T12:46:49;29.80;47.70
46720;DHT22;32452;51.382;-0.002;2023-10-09T12:49:39;30.00;47.40
46720;DHT22;32452;51.382;-0.002;2023-10-09T12:52:32;30.10;47.00
46720;DHT22;32452;51.382;-0.002;2023-10-09T12:55:22;30.20;46.80
46720;DHT22;32452;51.382;-0.002;2023-10-09T12:58:21;30.40;46.80
46720;DHT22;32452;51.382;-0.002;2023-10-09T13:01:06;30.50;46.40
46720;DHT22;32452;51.382;-0.002;2023-10-09T13:03:55;30.70;46.70
46720;DHT22;32452;51.382;-0.002;2023-10-09T13:06:42;30.90;45.60
46720;DHT22;32452;51.382;-0.002;2023-10-09T13:09:31;31.10;45.50
46720;DHT22;32452;51.382;-0.002;2023-10-09T13:12:21;31.10;45.10
46720;DHT22;32452;51.382;-0.002;2023-10-09T13:15:09;31.00;44.60
46720;DHT22;32452;51.382;-0.002;2023-10-09T13:17:55;30.80;44.30
46720;DHT22;32452;51.382;-0.002;2023-10-09T13:20:41;30.60;44.80
46720;DHT22;32452;51.382;-0.002;2023-10-09T13:23:26;30.60;45.30
46720;DHT22;32452;51.382;-0.002;2023-10-09T13:26:23;30.70;45.10
46720;DHT22;32452;51.382;-0.002;2023-10-09T13:29:18;30.70;45.20
46720;DHT22;32452;51.382;-0.002;2023-10-09T13:32:09;30.70;45.10
46720;DHT22;32452;51.382;-0.002;2023-10-09T13:35:05;30.70;45.40
46720;DHT22;32452;51.382;-0.002;2023-10-09T13:37:52;30.60;45.30
46720;DHT22;32452;51.382;-0.002;2023-10-09T13:40:40;30.50;45.30
46720;DHT22;32452;51.382;-0.002;2023-10-09T13:43:26;30.40;45.60
46720;DHT22;32452;51.382;-0.002;2023-10-09T13:46:13;30.30;45.50
46720;DHT22;32452;51.382;-0.002;2023-10-09T13:49:03;30.10;45.90
46720;DHT22;32452;51.382;-0.002;2023-10-09T13:51:49;29.90;46.30
46720;DHT22;32452;51.382;-0.002;2023-10-09T13:54:42;29.60;46.70
46720;DHT22;32452;51.382;-0.002;2023-10-09T13:57:27;29.40;47.10
46720;DHT22;32452;51.382;-0.002;2023-10-09T14:00:17;29.10;47.40
46720;DHT22;32452;51.382;-0.002;2023-10-09T14:03:17;28.80;48.10
46720;DHT22;32452;51.382;-0.002;2023-10-09T14:06:05;28.50;48.60
46720;DHT22;32452;51.382;-0.002;2023-10-09T14:09:02;28.30;48.90
46720;DHT22;32452;51.382;-0.002;2023-10-09T14:11:55;28.00;49.30
46720;DHT22;32452;51.382;-0.002;2023-10-09T14:14:51;27.70;50.10
46720;DHT22;32452;51.382;-0.002;2023-10-09T14:17:39;27.50;50.60
46720;DHT22;32452;51.382;-0.002;2023-10-09T14:20:28;27.40;51.10
46720;DHT22;32452;51.382;-0.002;2023-10-09T14:23:17;27.30;51.50
46720;DHT22;32452;51.382;-0.002;2023-10-09T14:26:06;27.30;51.70
46720;DHT22;32452;51.382;-0.002;2023-10-09T14:28:53;27.20;52.00
46720;DHT22;32452;51.382;-0.002;2023-10-09T14:31:38;27.10;52.10
46720;DHT22;32452;51.382;-0.002;2023-10-09T14:34:24;27.10;52.40
46720;DHT22;32452;51.382;-0.002;2023-10-09T14:37:14;27.00;52.70
46720;DHT22;32452;51.382;-0.002;2023-10-09T14:40:00;27.00;53.10
46720;DHT22;32452;51.382;-0.002;2023-10-09T14:42:46;26.90;53.30
46720;DHT22;32452;51.382;-0.002;2023-10-09T14:45:36;26.80;53.30
46720;DHT22;32452;51.382;-0.002;2023-10-09T14:48:22;26.80;53.80
46720;DHT22;32452;51.382;-0.002;2023-10-09T14:51:15;26.70;54.10
46720;DHT22;32452;51.382;-0.002;2023-10-09T14:54:00;26.60;54.10
46720;DHT22;32452;51.382;-0.002;2023-10-09T14:56:47;26.50;54.30
46720;DHT22;32452;51.382;-0.002;2023-10-09T14:59:33;26.50;54.70
46720;DHT22;32452;51.382;-0.002;2023-10-09T15:02:19;26.40;55.40
46720;DHT22;32452;51.382;-0.002;2023-10-09T15:05:05;26.30;55.00
46720;DHT22;32452;51.382;-0.002;2023-10-09T15:07:52;26.30;55.40
46720;DHT22;32452;51.382;-0.002;2023-10-09T15:10:46;26.20;55.70
46720;DHT22;32452;51.382;-0.002;2023-10-09T15:13:33;26.10;55.90
46720;DHT22;32452;51.382;-0.002;2023-10-09T15:16:19;26.00;56.10
46720;DHT22;32452;51.382;-0.002;2023-10-09T15:19:06;25.90;56.30
46720;DHT22;32452;51.382;-0.002;2023-10-09T15:21:56;25.80;56.60
46720;DHT22;32452;51.382;-0.002;2023-10-09T15:24:43;25.80;56.90
46720;DHT22;32452;51.382;-0.002;2023-10-09T15:27:29;25.70;57.20
46720;DHT22;32452;51.382;-0.002;2023-10-09T15:30:15;25.60;57.60
46720;DHT22;32452;51.382;-0.002;2023-10-09T15:33:02;25.60;57.80
46720;DHT22;32452;51.382;-0.002;2023-10-09T15:35:50;25.50;57.90
46720;DHT22;32452;51.382;-0.002;2023-10-09T15:38:35;25.50;58.00
46720;DHT22;32452;51.382;-0.002;2023-10-09T15:41:21;25.40;58.20
46720;DHT22;32452;51.382;-0.002;2023-10-09T15:44:07;25.40;58.30
46720;DHT22;32452;51.382;-0.002;2023-10-09T15:46:53;25.30;58.50
46720;DHT22;32452;51.382;-0.002;2023-10-09T15:49:45;25.20;58.70
46720;DHT22;32452;51.382;-0.002;2023-10-09T15:52:31;25.10;58.90
46720;DHT22;32452;51.382;-0.002;2023-10-09T15:55:16;25.10;59.20
46720;DHT22;32452;51.382;-0.002;2023-10-09T15:58:06;25.00;59.60
46720;DHT22;32452;51.382;-0.002;2023-10-09T16:00:54;24.90;60.00
46720;DHT22;32452;51.382;-0.002;2023-10-09T16:03:43;24.90;60.40
46720;DHT22;32452;51.382;-0.002;2023-10-09T16:06:28;24.80;60.80
46720;DHT22;32452;51.382;-0.002;2023-10-09T16:09:16;24.70;61.00
46720;DHT22;32452;51.382;-0.002;2023-10-09T16:12:07;24.60;61.20
46720;DHT22;32452;51.382;-0.002;2023-10-09T16:14:53;24.50;61.50
46720;DHT22;32452;51.382;-0.002;2023-10-09T16:17:42;24.50;61.70
46720;DHT22;32452;51.382;-0.002;2023-10-09T16:20:29;24.40;62.00
46720;DHT22;32452;51.382;-0.002;2023-10-09T16:23:16;24.40;62.00
46720;DHT22;32452;51.382;-0.002;2023-10-09T16:26:05;24.30;62.30
46720;DHT22;32452;51.382;-0.002;2023-10-09T16:28:52;24.20;62.60
46720;DHT22;32452;51.382;-0.002;2023-10-09T16:31:38;24.20;62.90
46720;DHT22;32452;51.382;-0.002;2023-10-09T16:34:26;24.20;63.30
46720;DHT22;32452;51.382;-0.002;2023-10-09T16:37:12;24.10;63.50
46720;DHT22;32452;51.382;-0.002;2023-10-09T16:39:59;24.00;63.70
46720;DHT22;32452;51.382;-0.002;2023-10-09T16:42:47;23.90;64.00
46720;DHT22;32452;51.382;-0.002;2023-10-09T16:45:35;23.80;64.30
46720;DHT22;32452;51.382;-0.002;2023-10-09T16:48:21;23.80;64.70
46720;DHT22;32452;51.382;-0.002;2023-10-09T16:51:07;23.60;64.90
46720;DHT22;32452;51.382;-0.002;2023-10-09T16:53:57;23.60;65.30
46720;DHT22;32452;51.382;-0.002;2023-10-09T16:56:45;23.50;65.80
46720;DHT22;32452;51.382;-0.002;2023-10-09T16:59:32;23.40;66.10
46720;DHT22;32452;51.382;-0.002;2023-10-09T17:02:18;23.30;66.60
46720;DHT22;32452;51.382;-0.002;2023-10-09T17:05:09;23.20;67.10
46720;DHT22;32452;51.382;-0.002;2023-10-09T17:08:13;23.10;67.50
46720;DHT22;32452;51.382;-0.002;2023-10-09T17:10:59;23.00;67.90
46720;DHT22;32452;51.382;-0.002;2023-10-09T17:13:45;22.90;68.40
46720;DHT22;32452;51.382;-0.002;2023-10-09T17:16:33;22.90;68.90
46720;DHT22;32452;51.382;-0.002;2023-10-09T17:19:19;22.80;69.20
46720;DHT22;32452;51.382;-0.002;2023-10-09T17:22:05;22.70;69.60
46720;DHT22;32452;51.382;-0.002;2023-10-09T17:24:56;22.60;70.00
46720;DHT22;32452;51.382;-0.002;2023-10-09T17:27:45;22.50;70.50
46720;DHT22;32452;51.382;-0.002;2023-10-09T17:30:31;22.40;71.10
46720;DHT22;32452;51.382;-0.002;2023-10-09T17:33:21;22.30;71.40
46720;DHT22;32452;51.382;-0.002;2023-10-09T17:36:08;22.20;72.00
46720;DHT22;32452;51.382;-0.002;2023-10-09T17:38:57;22.10;72.50
46720;DHT22;32452;51.382;-0.002;2023-10-09T17:41:45;22.00;72.80
46720;DHT22;32452;51.382;-0.002;2023-10-09T17:44:31;22.00;73.50
46720;DHT22;32452;51.382;-0.002;2023-10-09T17:47:17;21.80;74.10
46720;DHT22;32452;51.382;-0.002;2023-10-09T17:50:04;21.70;74.80
46720;DHT22;32452;51.382;-0.002;2023-10-09T17:52:50;21.70;75.50